sensor_id;sensor_type;location;lat;lon;timestamp;P1;durP1;ratioP1;P2;durP2;ratioP2
12687;SDS011;6408;59.388;17.798;2023-05-10T00:01:47;7.93;;;4.33;;
12687;SDS011;6408;59.388;17.798;2023-05-10T00:04:16;9.30;;;3.90;;
12687;SDS011;6408;59.388;17.798;2023-05-10T00:06:43;6.37;;;4.13;;
12687;SDS011;6408;59.388;17.798;2023-05-10T00:09:11;6.63;;;4.10;;
12687;SDS011;6408;59.388;17.798;2023-05-10T00:11:38;6.83;;;4.47;;
12687;SDS011;6408;59.388;17.798;2023-05-10T00:14:06;6.47;;;4.10;;
12687;SDS011;6408;59.388;17.798;2023-05-10T00:16:33;6.17;;;3.83;;
12687;SDS011;6408;59.388;17.798;2023-05-10T00:19:00;6.60;;;4.10;;
12687;SDS011;6408;59.388;17.798;2023-05-10T00:21:29;5.90;;;3.93;;
12687;SDS011;6408;59.388;17.798;2023-05-10T00:23:57;8.90;;;4.53;;
12687;SDS011;6408;59.388;17.798;2023-05-10T00:26:24;6.07;;;3.77;;
12687;SDS011;6408;59.388;17.798;2023-05-10T00:28:52;4.87;;;4.00;;
12687;SDS011;6408;59.388;17.798;2023-05-10T00:31:19;6.30;;;3.80;;
12687;SDS011;6408;59.388;17.798;2023-05-10T00:33:46;5.70;;;4.17;;
12687;SDS011;6408;59.388;17.798;2023-05-10T00:36:13;6.33;;;4.63;;
12687;SDS011;6408;59.388;17.798;2023-05-10T00:38:42;6.33;;;4.60;;
12687;SDS011;6408;59.388;17.798;2023-05-10T00:41:09;9.93;;;4.50;;
12687;SDS011;6408;59.388;17.798;2023-05-10T00:43:37;5.57;;;4.03;;
12687;SDS011;6408;59.388;17.798;2023-05-10T00:46:04;8.37;;;4.13;;
12687;SDS011;6408;59.388;17.798;2023-05-10T00:48:32;6.57;;;4.13;;
12687;SDS011;6408;59.388;17.798;2023-05-10T00:51:00;7.30;;;4.13;;
12687;SDS011;6408;59.388;17.798;2023-05-10T00:53:28;5.47;;;4.20;;
12687;SDS011;6408;59.388;17.798;2023-05-10T00:55:59;6.57;;;3.90;;
12687;SDS011;6408;59.388;17.798;2023-05-10T00:58:28;4.30;;;3.90;;
12687;SDS011;6408;59.388;17.798;2023-05-10T01:00:56;4.80;;;4.23;;
12687;SDS011;6408;59.388;17.798;2023-05-10T01:03:24;7.97;;;4.40;;
12687;SDS011;6408;59.388;17.798;2023-05-10T01:05:51;5.93;;;4.13;;
12687;SDS011;6408;59.388;17.798;2023-05-10T01:08:19;7.53;;;4.40;;
12687;SDS011;6408;59.388;17.798;2023-05-10T01:10:46;5.77;;;4.53;;
12687;SDS011;6408;59.388;17.798;2023-05-10T01:13:17;7.50;;;4.53;;
12687;SDS011;6408;59.388;17.798;2023-05-10T01:16:02;6.20;;;4.20;;
12687;SDS011;6408;59.388;17.798;2023-05-10T01:18:31;7.33;;;4.43;;
12687;SDS011;6408;59.388;17.798;2023-05-10T01:21:04;7.23;;;4.20;;
12687;SDS011;6408;59.388;17.798;2023-05-10T01:23:55;5.77;;;4.27;;
12687;SDS011;6408;59.388;17.798;2023-05-10T01:27:02;6.03;;;4.23;;
12687;SDS011;6408;59.388;17.798;2023-05-10T01:29:58;5.67;;;4.07;;
12687;SDS011;6408;59.388;17.798;2023-05-10T01:32:38;7.97;;;4.37;;
12687;SDS011;6408;59.388;17.798;2023-05-10T01:35:13;7.00;;;4.27;;
12687;SDS011;6408;59.388;17.798;2023-05-10T01:37:50;5.53;;;4.30;;
12687;SDS011;6408;59.388;17.798;2023-05-10T01:40:23;5.43;;;3.90;;
12687;SDS011;6408;59.388;17.798;2023-05-10T01:43:00;6.87;;;4.27;;
12687;SDS011;6408;59.388;17.798;2023-05-10T01:45:30;6.37;;;4.30;;
12687;SDS011;6408;59.388;17.798;2023-05-10T01:48:06;7.20;;;4.20;;
12687;SDS011;6408;59.388;17.798;2023-05-10T01:50:36;7.17;;;4.40;;
12687;SDS011;6408;59.388;17.798;2023-05-10T01:53:08;5.90;;;4.47;;
12687;SDS011;6408;59.388;17.798;2023-05-10T01:55:39;6.23;;;4.60;;
12687;SDS011;6408;59.388;17.798;2023-05-10T01:58:12;5.57;;;4.43;;
12687;SDS011;6408;59.388;17.798;2023-05-10T02:00:42;5.37;;;4.10;;
12687;SDS011;6408;59.388;17.798;2023-05-10T02:03:14;4.40;;;4.00;;
12687;SDS011;6408;59.388;17.798;2023-05-10T02:05:43;6.20;;;3.87;;
12687;SDS011;6408;59.388;17.798;2023-05-10T02:08:13;4.43;;;3.87;;
12687;SDS011;6408;59.388;17.798;2023-05-10T02:10:44;5.90;;;4.20;;
12687;SDS011;6408;59.388;17.798;2023-05-10T02:13:13;6.57;;;4.23;;
12687;SDS011;6408;59.388;17.798;2023-05-10T02:15:42;7.17;;;4.07;;
12687;SDS011;6408;59.388;17.798;2023-05-10T02:18:15;5.67;;;4.23;;
12687;SDS011;6408;59.388;17.798;2023-05-10T02:20:44;4.47;;;4.00;;
12687;SDS011;6408;59.388;17.798;2023-05-10T02:23:13;6.10;;;4.33;;
12687;SDS011;6408;59.388;17.798;2023-05-10T02:25:42;5.97;;;4.00;;
12687;SDS011;6408;59.388;17.798;2023-05-10T02:28:11;5.27;;;4.27;;
12687;SDS011;6408;59.388;17.798;2023-05-10T02:30:41;7.60;;;4.10;;
12687;SDS011;6408;59.388;17.798;2023-05-10T02:33:09;6.43;;;4.47;;
12687;SDS011;6408;59.388;17.798;2023-05-10T02:35:39;7.23;;;4.00;;
12687;SDS011;6408;59.388;17.798;2023-05-10T02:38:07;7.53;;;4.30;;
12687;SDS011;6408;59.388;17.798;2023-05-10T02:40:36;5.60;;;4.40;;
12687;SDS011;6408;59.388;17.798;2023-05-10T02:43:07;6.60;;;4.57;;
12687;SDS011;6408;59.388;17.798;2023-05-10T02:45:39;5.43;;;4.23;;
12687;SDS011;6408;59.388;17.798;2023-05-10T02:48:08;5.57;;;4.17;;
12687;SDS011;6408;59.388;17.798;2023-05-10T02:50:36;8.93;;;4.77;;
12687;SDS011;6408;59.388;17.798;2023-05-10T02:53:09;4.77;;;4.07;;
12687;SDS011;6408;59.388;17.798;2023-05-10T02:55:41;6.27;;;3.93;;
12687;SDS011;6408;59.388;17.798;2023-05-10T02:58:12;6.43;;;4.20;;
12687;SDS011;6408;59.388;17.798;2023-05-10T03:00:40;5.67;;;4.07;;
12687;SDS011;6408;59.388;17.798;2023-05-10T03:03:08;4.73;;;4.23;;
12687;SDS011;6408;59.388;17.798;2023-05-10T03:05:36;5.63;;;5.00;;
12687;SDS011;6408;59.388;17.798;2023-05-10T03:08:05;5.07;;;4.50;;
12687;SDS011;6408;59.388;17.798;2023-05-10T03:10:33;7.70;;;4.10;;
12687;SDS011;6408;59.388;17.798;2023-05-10T03:13:13;4.63;;;3.90;;
12687;SDS011;6408;59.388;17.798;2023-05-10T03:15:47;5.97;;;4.50;;
12687;SDS011;6408;59.388;17.798;2023-05-10T03:18:23;5.93;;;4.43;;
12687;SDS011;6408;59.388;17.798;2023-05-10T03:20:59;5.47;;;4.37;;
12687;SDS011;6408;59.388;17.798;2023-05-10T03:23:34;5.80;;;4.13;;
12687;SDS011;6408;59.388;17.798;2023-05-10T03:26:07;9.07;;;4.33;;
12687;SDS011;6408;59.388;17.798;2023-05-10T03:28:35;6.83;;;4.10;;
12687;SDS011;6408;59.388;17.798;2023-05-10T03:31:04;6.27;;;4.30;;
12687;SDS011;6408;59.388;17.798;2023-05-10T03:33:33;5.13;;;4.17;;
12687;SDS011;6408;59.388;17.798;2023-05-10T03:36:02;6.13;;;4.30;;
12687;SDS011;6408;59.388;17.798;2023-05-10T03:38:30;6.00;;;4.40;;
12687;SDS011;6408;59.388;17.798;2023-05-10T03:40:57;7.70;;;4.37;;
12687;SDS011;6408;59.388;17.798;2023-05-10T03:43:25;7.47;;;4.40;;
12687;SDS011;6408;59.388;17.798;2023-05-10T03:45:52;4.90;;;4.10;;
12687;SDS011;6408;59.388;17.798;2023-05-10T03:48:20;8.40;;;4.37;;
12687;SDS011;6408;59.388;17.798;2023-05-10T03:50:47;5.37;;;4.27;;
12687;SDS011;6408;59.388;17.798;2023-05-10T03:53:16;5.57;;;3.93;;
12687;SDS011;6408;59.388;17.798;2023-05-10T03:55:44;5.03;;;3.87;;
12687;SDS011;6408;59.388;17.798;2023-05-10T03:58:12;6.30;;;4.37;;
12687;SDS011;6408;59.388;17.798;2023-05-10T04:00:39;6.50;;;4.20;;
12687;SDS011;6408;59.388;17.798;2023-05-10T04:03:10;4.67;;;3.63;;
12687;SDS011;6408;59.388;17.798;2023-05-10T04:05:38;5.57;;;3.70;;
12687;SDS011;6408;59.388;17.798;2023-05-10T04:08:05;5.50;;;3.80;;
12687;SDS011;6408;59.388;17.798;2023-05-10T04:10:35;5.47;;;3.87;;
12687;SDS011;6408;59.388;17.798;2023-05-10T04:13:02;7.60;;;4.10;;
12687;SDS011;6408;59.388;17.798;2023-05-10T04:15:29;5.87;;;4.10;;
12687;SDS011;6408;59.388;17.798;2023-05-10T04:17:56;5.23;;;4.03;;
12687;SDS011;6408;59.388;17.798;2023-05-10T04:20:24;5.67;;;4.07;;
12687;SDS011;6408;59.388;17.798;2023-05-10T04:22:51;5.97;;;3.90;;
12687;SDS011;6408;59.388;17.798;2023-05-10T04:25:19;7.10;;;3.67;;
12687;SDS011;6408;59.388;17.798;2023-05-10T04:27:48;6.87;;;3.83;;
12687;SDS011;6408;59.388;17.798;2023-05-10T04:30:16;7.17;;;3.83;;
12687;SDS011;6408;59.388;17.798;2023-05-10T04:32:43;5.30;;;4.20;;
12687;SDS011;6408;59.388;17.798;2023-05-10T04:35:10;4.77;;;3.40;;
12687;SDS011;6408;59.388;17.798;2023-05-10T04:37:39;6.30;;;4.07;;
12687;SDS011;6408;59.388;17.798;2023-05-10T04:40:07;5.00;;;3.57;;
12687;SDS011;6408;59.388;17.798;2023-05-10T04:42:35;5.28;;;3.97;;
12687;SDS011;6408;59.388;17.798;2023-05-10T04:45:05;5.57;;;3.30;;
12687;SDS011;6408;59.388;17.798;2023-05-10T04:47:34;3.88;;;3.50;;
12687;SDS011;6408;59.388;17.798;2023-05-10T04:50:02;6.93;;;3.70;;
12687;SDS011;6408;59.388;17.798;2023-05-10T04:52:30;4.78;;;3.88;;
12687;SDS011;6408;59.388;17.798;2023-05-10T04:54:58;7.78;;;3.45;;
12687;SDS011;6408;59.388;17.798;2023-05-10T04:57:25;4.90;;;3.20;;
12687;SDS011;6408;59.388;17.798;2023-05-10T04:59:52;5.85;;;3.88;;
12687;SDS011;6408;59.388;17.798;2023-05-10T05:02:23;4.13;;;3.70;;
12687;SDS011;6408;59.388;17.798;2023-05-10T05:04:50;6.38;;;3.53;;
12687;SDS011;6408;59.388;17.798;2023-05-10T05:07:18;4.97;;;3.40;;
12687;SDS011;6408;59.388;17.798;2023-05-10T05:09:45;4.40;;;3.60;;
12687;SDS011;6408;59.388;17.798;2023-05-10T05:12:12;4.97;;;3.28;;
12687;SDS011;6408;59.388;17.798;2023-05-10T05:14:40;8.75;;;3.47;;
12687;SDS011;6408;59.388;17.798;2023-05-10T05:17:07;3.70;;;3.00;;
12687;SDS011;6408;59.388;17.798;2023-05-10T05:19:36;3.65;;;3.22;;
12687;SDS011;6408;59.388;17.798;2023-05-10T05:22:06;8.27;;;3.05;;
12687;SDS011;6408;59.388;17.798;2023-05-10T05:24:34;5.40;;;3.38;;
12687;SDS011;6408;59.388;17.798;2023-05-10T05:27:03;6.05;;;3.05;;
12687;SDS011;6408;59.388;17.798;2023-05-10T05:29:30;3.58;;;2.80;;
12687;SDS011;6408;59.388;17.798;2023-05-10T05:31:58;8.85;;;3.28;;
12687;SDS011;6408;59.388;17.798;2023-05-10T05:34:26;4.93;;;2.88;;
12687;SDS011;6408;59.388;17.798;2023-05-10T05:36:55;3.58;;;3.03;;
12687;SDS011;6408;59.388;17.798;2023-05-10T05:39:23;4.47;;;3.30;;
12687;SDS011;6408;59.388;17.798;2023-05-10T05:41:50;4.15;;;2.92;;
12687;SDS011;6408;59.388;17.798;2023-05-10T05:44:17;3.35;;;2.90;;
12687;SDS011;6408;59.388;17.798;2023-05-10T05:46:45;4.25;;;2.90;;
12687;SDS011;6408;59.388;17.798;2023-05-10T05:49:12;4.82;;;3.10;;
12687;SDS011;6408;59.388;17.798;2023-05-10T05:51:39;4.28;;;3.13;;
12687;SDS011;6408;59.388;17.798;2023-05-10T05:54:09;3.00;;;2.70;;
12687;SDS011;6408;59.388;17.798;2023-05-10T05:56:36;4.63;;;2.95;;
12687;SDS011;6408;59.388;17.798;2023-05-10T05:59:03;4.68;;;3.00;;
12687;SDS011;6408;59.388;17.798;2023-05-10T06:01:31;3.45;;;2.85;;
12687;SDS011;6408;59.388;17.798;2023-05-10T06:03:58;3.63;;;2.90;;
12687;SDS011;6408;59.388;17.798;2023-05-10T06:06:26;3.53;;;2.60;;
12687;SDS011;6408;59.388;17.798;2023-05-10T06:08:53;6.00;;;3.42;;
12687;SDS011;6408;59.388;17.798;2023-05-10T06:11:22;4.65;;;2.55;;
12687;SDS011;6408;59.388;17.798;2023-05-10T06:13:50;6.75;;;3.03;;
12687;SDS011;6408;59.388;17.798;2023-05-10T06:16:17;5.05;;;3.20;;
12687;SDS011;6408;59.388;17.798;2023-05-10T06:18:45;4.15;;;2.65;;
12687;SDS011;6408;59.388;17.798;2023-05-10T06:21:12;2.85;;;2.45;;
12687;SDS011;6408;59.388;17.798;2023-05-10T06:23:40;3.83;;;2.83;;
12687;SDS011;6408;59.388;17.798;2023-05-10T06:26:07;4.85;;;2.70;;
12687;SDS011;6408;59.388;17.798;2023-05-10T06:28:36;8.38;;;2.72;;
12687;SDS011;6408;59.388;17.798;2023-05-10T06:31:04;3.38;;;2.60;;
12687;SDS011;6408;59.388;17.798;2023-05-10T06:33:32;4.80;;;2.58;;
12687;SDS011;6408;59.388;17.798;2023-05-10T06:35:59;8.05;;;2.83;;
12687;SDS011;6408;59.388;17.798;2023-05-10T06:38:27;3.70;;;2.65;;
12687;SDS011;6408;59.388;17.798;2023-05-10T06:40:54;3.72;;;2.33;;
12687;SDS011;6408;59.388;17.798;2023-05-10T06:43:21;4.28;;;2.70;;
12687;SDS011;6408;59.388;17.798;2023-05-10T06:45:51;9.43;;;2.95;;
12687;SDS011;6408;59.388;17.798;2023-05-10T06:48:18;5.60;;;3.15;;
12687;SDS011;6408;59.388;17.798;2023-05-10T06:50:46;4.85;;;2.80;;
12687;SDS011;6408;59.388;17.798;2023-05-10T06:53:13;4.35;;;2.90;;
12687;SDS011;6408;59.388;17.798;2023-05-10T06:55:40;3.20;;;2.70;;
12687;SDS011;6408;59.388;17.798;2023-05-10T06:58:08;4.57;;;2.47;;
12687;SDS011;6408;59.388;17.798;2023-05-10T07:00:35;6.28;;;2.88;;
12687;SDS011;6408;59.388;17.798;2023-05-10T07:03:07;4.65;;;2.85;;
12687;SDS011;6408;59.388;17.798;2023-05-10T07:05:34;3.70;;;2.80;;
12687;SDS011;6408;59.388;17.798;2023-05-10T07:08:02;3.08;;;2.40;;
12687;SDS011;6408;59.388;17.798;2023-05-10T07:10:29;3.70;;;2.58;;
12687;SDS011;6408;59.388;17.798;2023-05-10T07:12:56;4.53;;;2.60;;
12687;SDS011;6408;59.388;17.798;2023-05-10T07:15:24;4.28;;;2.75;;
12687;SDS011;6408;59.388;17.798;2023-05-10T07:17:51;5.10;;;2.75;;
12687;SDS011;6408;59.388;17.798;2023-05-10T07:20:20;3.95;;;2.58;;
12687;SDS011;6408;59.388;17.798;2023-05-10T07:22:49;3.88;;;2.75;;
12687;SDS011;6408;59.388;17.798;2023-05-10T07:25:17;5.57;;;2.45;;
12687;SDS011;6408;59.388;17.798;2023-05-10T07:27:44;3.00;;;2.70;;
12687;SDS011;6408;59.388;17.798;2023-05-10T07:30:13;6.68;;;2.58;;
12687;SDS011;6408;59.388;17.798;2023-05-10T07:32:41;4.32;;;2.78;;
12687;SDS011;6408;59.388;17.798;2023-05-10T07:35:09;5.38;;;2.47;;
12687;SDS011;6408;59.388;17.798;2023-05-10T07:37:38;3.35;;;2.40;;
12687;SDS011;6408;59.388;17.798;2023-05-10T07:40:06;2.60;;;2.40;;
12687;SDS011;6408;59.388;17.798;2023-05-10T07:42:34;2.90;;;2.40;;
12687;SDS011;6408;59.388;17.798;2023-05-10T07:45:01;2.80;;;2.30;;
12687;SDS011;6408;59.388;17.798;2023-05-10T07:47:29;3.53;;;2.85;;
12687;SDS011;6408;59.388;17.798;2023-05-10T07:49:56;2.78;;;2.30;;
12687;SDS011;6408;59.388;17.798;2023-05-10T07:52:24;2.92;;;2.63;;
12687;SDS011;6408;59.388;17.798;2023-05-10T07:54:53;4.75;;;2.70;;
12687;SDS011;6408;59.388;17.798;2023-05-10T07:57:22;5.30;;;2.15;;
12687;SDS011;6408;59.388;17.798;2023-05-10T07:59:49;4.55;;;2.35;;
12687;SDS011;6408;59.388;17.798;2023-05-10T08:02:17;3.80;;;2.42;;
12687;SDS011;6408;59.388;17.798;2023-05-10T08:04:44;2.95;;;2.13;;
12687;SDS011;6408;59.388;17.798;2023-05-10T08:07:11;3.75;;;2.67;;
12687;SDS011;6408;59.388;17.798;2023-05-10T08:09:39;5.70;;;2.92;;
12687;SDS011;6408;59.388;17.798;2023-05-10T08:12:08;3.97;;;2.40;;
12687;SDS011;6408;59.388;17.798;2023-05-10T08:14:35;5.13;;;2.58;;
12687;SDS011;6408;59.388;17.798;2023-05-10T08:17:03;2.92;;;2.50;;
12687;SDS011;6408;59.388;17.798;2023-05-10T08:19:30;4.75;;;2.22;;
12687;SDS011;6408;59.388;17.798;2023-05-10T08:21:57;4.13;;;2.70;;
12687;SDS011;6408;59.388;17.798;2023-05-10T08:24:25;4.53;;;2.60;;
12687;SDS011;6408;59.388;17.798;2023-05-10T08:26:53;4.93;;;2.67;;
12687;SDS011;6408;59.388;17.798;2023-05-10T08:29:22;3.22;;;2.45;;
12687;SDS011;6408;59.388;17.798;2023-05-10T08:31:49;3.58;;;2.70;;
12687;SDS011;6408;59.388;17.798;2023-05-10T08:34:17;3.03;;;2.50;;
12687;SDS011;6408;59.388;17.798;2023-05-10T08:36:44;3.50;;;2.42;;
12687;SDS011;6408;59.388;17.798;2023-05-10T08:39:11;3.85;;;2.40;;
12687;SDS011;6408;59.388;17.798;2023-05-10T08:41:39;2.88;;;2.50;;
12687;SDS011;6408;59.388;17.798;2023-05-10T08:44:10;3.53;;;2.17;;
12687;SDS011;6408;59.388;17.798;2023-05-10T08:46:40;4.63;;;2.20;;
12687;SDS011;6408;59.388;17.798;2023-05-10T08:49:12;2.85;;;2.33;;
12687;SDS011;6408;59.388;17.798;2023-05-10T08:51:43;3.35;;;2.47;;
12687;SDS011;6408;59.388;17.798;2023-05-10T08:54:16;4.80;;;2.55;;
12687;SDS011;6408;59.388;17.798;2023-05-10T08:56:43;4.82;;;2.88;;
12687;SDS011;6408;59.388;17.798;2023-05-10T08:59:11;3.40;;;2.50;;
12687;SDS011;6408;59.388;17.798;2023-05-10T09:01:41;4.07;;;2.40;;
12687;SDS011;6408;59.388;17.798;2023-05-10T09:04:11;3.78;;;2.42;;
12687;SDS011;6408;59.388;17.798;2023-05-10T09:06:38;3.83;;;2.30;;
12687;SDS011;6408;59.388;17.798;2023-05-10T09:09:06;4.78;;;2.55;;
12687;SDS011;6408;59.388;17.798;2023-05-10T09:11:34;4.57;;;2.08;;
12687;SDS011;6408;59.388;17.798;2023-05-10T09:14:01;2.65;;;2.20;;
12687;SDS011;6408;59.388;17.798;2023-05-10T09:16:29;3.65;;;2.40;;
12687;SDS011;6408;59.388;17.798;2023-05-10T09:18:58;3.95;;;2.60;;
12687;SDS011;6408;59.388;17.798;2023-05-10T09:21:26;3.83;;;2.63;;
12687;SDS011;6408;59.388;17.798;2023-05-10T09:23:53;3.42;;;2.28;;
12687;SDS011;6408;59.388;17.798;2023-05-10T09:26:23;3.35;;;2.28;;
12687;SDS011;6408;59.388;17.798;2023-05-10T09:28:51;3.05;;;2.40;;
12687;SDS011;6408;59.388;17.798;2023-05-10T09:31:19;3.15;;;2.40;;
12687;SDS011;6408;59.388;17.798;2023-05-10T09:33:48;4.05;;;2.70;;
12687;SDS011;6408;59.388;17.798;2023-05-10T09:36:17;5.07;;;2.58;;
12687;SDS011;6408;59.388;17.798;2023-05-10T09:38:45;3.95;;;2.42;;
12687;SDS011;6408;59.388;17.798;2023-05-10T09:41:17;2.80;;;2.40;;
12687;SDS011;6408;59.388;17.798;2023-05-10T09:43:45;3.70;;;2.63;;
12687;SDS011;6408;59.388;17.798;2023-05-10T09:46:13;4.15;;;2.70;;
12687;SDS011;6408;59.388;17.798;2023-05-10T09:48:43;2.63;;;2.42;;
12687;SDS011;6408;59.388;17.798;2023-05-10T09:51:20;3.20;;;2.30;;
12687;SDS011;6408;59.388;17.798;2023-05-10T09:53:47;3.00;;;2.70;;
12687;SDS011;6408;59.388;17.798;2023-05-10T09:59:02;3.15;;;2.30;;
12687;SDS011;6408;59.388;17.798;2023-05-10T10:01:30;3.20;;;2.40;;
12687;SDS011;6408;59.388;17.798;2023-05-10T10:03:58;3.17;;;2.17;;
12687;SDS011;6408;59.388;17.798;2023-05-10T10:06:27;6.47;;;2.47;;
12687;SDS011;6408;59.388;17.798;2023-05-10T10:08:54;4.63;;;2.40;;
12687;SDS011;6408;59.388;17.798;2023-05-10T10:11:22;3.45;;;2.38;;
12687;SDS011;6408;59.388;17.798;2023-05-10T10:13:51;2.80;;;2.40;;
12687;SDS011;6408;59.388;17.798;2023-05-10T10:16:18;3.17;;;2.30;;
12687;SDS011;6408;59.388;17.798;2023-05-10T10:18:47;3.42;;;2.17;;
12687;SDS011;6408;59.388;17.798;2023-05-10T10:21:14;3.75;;;2.40;;
12687;SDS011;6408;59.388;17.798;2023-05-10T10:23:44;4.22;;;2.58;;
12687;SDS011;6408;59.388;17.798;2023-05-10T10:26:13;5.18;;;2.50;;
12687;SDS011;6408;59.388;17.798;2023-05-10T10:28:44;3.25;;;2.20;;
12687;SDS011;6408;59.388;17.798;2023-05-10T10:31:21;4.00;;;2.22;;
12687;SDS011;6408;59.388;17.798;2023-05-10T10:33:56;3.53;;;2.22;;
12687;SDS011;6408;59.388;17.798;2023-05-10T10:36:27;6.30;;;2.50;;
12687;SDS011;6408;59.388;17.798;2023-05-10T10:38:58;2.53;;;2.28;;
12687;SDS011;6408;59.388;17.798;2023-05-10T10:41:28;4.53;;;2.58;;
12687;SDS011;6408;59.388;17.798;2023-05-10T10:50:04;3.13;;;2.53;;
12687;SDS011;6408;59.388;17.798;2023-05-10T10:52:33;2.53;;;2.20;;
12687;SDS011;6408;59.388;17.798;2023-05-10T10:55:05;3.15;;;2.35;;
12687;SDS011;6408;59.388;17.798;2023-05-10T10:57:35;4.53;;;2.60;;
12687;SDS011;6408;59.388;17.798;2023-05-10T11:00:26;7.45;;;2.78;;
12687;SDS011;6408;59.388;17.798;2023-05-10T11:02:56;4.50;;;2.13;;
12687;SDS011;6408;59.388;17.798;2023-05-10T11:05:25;3.70;;;2.17;;
12687;SDS011;6408;59.388;17.798;2023-05-10T11:08:06;7.35;;;2.40;;
12687;SDS011;6408;59.388;17.798;2023-05-10T11:10:51;4.07;;;2.47;;
12687;SDS011;6408;59.388;17.798;2023-05-10T11:13:29;4.60;;;2.30;;
12687;SDS011;6408;59.388;17.798;2023-05-10T11:15:59;2.67;;;2.47;;
12687;SDS011;6408;59.388;17.798;2023-05-10T11:18:40;3.83;;;2.30;;
12687;SDS011;6408;59.388;17.798;2023-05-10T11:21:18;4.95;;;2.58;;
12687;SDS011;6408;59.388;17.798;2023-05-10T11:23:49;5.63;;;2.70;;
12687;SDS011;6408;59.388;17.798;2023-05-10T11:26:19;4.03;;;2.53;;
12687;SDS011;6408;59.388;17.798;2023-05-10T11:28:48;2.63;;;2.40;;
12687;SDS011;6408;59.388;17.798;2023-05-10T11:31:16;4.10;;;2.40;;
12687;SDS011;6408;59.388;17.798;2023-05-10T11:33:44;3.70;;;2.30;;
12687;SDS011;6408;59.388;17.798;2023-05-10T11:36:15;2.95;;;2.28;;
12687;SDS011;6408;59.388;17.798;2023-05-10T11:38:44;3.35;;;2.60;;
12687;SDS011;6408;59.388;17.798;2023-05-10T11:41:12;5.80;;;2.50;;
12687;SDS011;6408;59.388;17.798;2023-05-10T11:43:41;2.58;;;2.13;;
12687;SDS011;6408;59.388;17.798;2023-05-10T11:46:10;2.95;;;2.50;;
12687;SDS011;6408;59.388;17.798;2023-05-10T11:48:38;3.95;;;2.10;;
12687;SDS011;6408;59.388;17.798;2023-05-10T11:51:07;6.07;;;2.17;;
12687;SDS011;6408;59.388;17.798;2023-05-10T11:53:35;3.13;;;2.30;;
12687;SDS011;6408;59.388;17.798;2023-05-10T11:56:03;2.92;;;2.28;;
12687;SDS011;6408;59.388;17.798;2023-05-10T11:58:31;2.42;;;2.20;;
12687;SDS011;6408;59.388;17.798;2023-05-10T12:01:01;4.95;;;2.20;;
12687;SDS011;6408;59.388;17.798;2023-05-10T12:03:30;2.58;;;2.13;;
12687;SDS011;6408;59.388;17.798;2023-05-10T12:05:58;3.50;;;2.13;;
12687;SDS011;6408;59.388;17.798;2023-05-10T12:08:27;2.30;;;2.10;;
12687;SDS011;6408;59.388;17.798;2023-05-10T12:11:04;2.85;;;2.50;;
12687;SDS011;6408;59.388;17.798;2023-05-10T12:13:36;2.65;;;2.30;;
12687;SDS011;6408;59.388;17.798;2023-05-10T12:16:14;2.92;;;2.20;;
12687;SDS011;6408;59.388;17.798;2023-05-10T12:18:43;3.03;;;2.30;;
12687;SDS011;6408;59.388;17.798;2023-05-10T12:21:11;4.18;;;2.28;;
12687;SDS011;6408;59.388;17.798;2023-05-10T12:23:39;3.65;;;2.33;;
12687;SDS011;6408;59.388;17.798;2023-05-10T12:26:07;3.30;;;2.50;;
12687;SDS011;6408;59.388;17.798;2023-05-10T12:28:37;5.13;;;2.15;;
12687;SDS011;6408;59.388;17.798;2023-05-10T12:31:05;4.03;;;2.03;;
12687;SDS011;6408;59.388;17.798;2023-05-10T12:33:38;3.67;;;2.47;;
12687;SDS011;6408;59.388;17.798;2023-05-10T12:36:08;4.43;;;2.40;;
12687;SDS011;6408;59.388;17.798;2023-05-10T12:38:36;3.88;;;2.42;;
12687;SDS011;6408;59.388;17.798;2023-05-10T12:41:05;3.75;;;2.10;;
12687;SDS011;6408;59.388;17.798;2023-05-10T12:43:33;3.67;;;2.13;;
12687;SDS011;6408;59.388;17.798;2023-05-10T12:46:05;7.13;;;2.35;;
12687;SDS011;6408;59.388;17.798;2023-05-10T12:48:34;4.07;;;2.15;;
12687;SDS011;6408;59.388;17.798;2023-05-10T12:51:03;3.63;;;2.30;;
12687;SDS011;6408;59.388;17.798;2023-05-10T12:53:34;5.43;;;2.42;;
12687;SDS011;6408;59.388;17.798;2023-05-10T12:56:02;4.38;;;2.30;;
12687;SDS011;6408;59.388;17.798;2023-05-10T12:58:30;2.20;;;2.00;;
12687;SDS011;6408;59.388;17.798;2023-05-10T13:00:57;4.82;;;2.10;;
12687;SDS011;6408;59.388;17.798;2023-05-10T13:03:25;3.40;;;2.22;;
12687;SDS011;6408;59.388;17.798;2023-05-10T13:05:53;2.28;;;1.95;;
12687;SDS011;6408;59.388;17.798;2023-05-10T13:08:21;3.25;;;2.20;;
12687;SDS011;6408;59.388;17.798;2023-05-10T13:10:50;4.07;;;1.67;;
12687;SDS011;6408;59.388;17.798;2023-05-10T13:13:17;2.65;;;1.92;;
12687;SDS011;6408;59.388;17.798;2023-05-10T13:15:45;4.88;;;2.00;;
12687;SDS011;6408;59.388;17.798;2023-05-10T13:18:12;4.45;;;2.10;;
12687;SDS011;6408;59.388;17.798;2023-05-10T13:20:39;2.97;;;2.15;;
12687;SDS011;6408;59.388;17.798;2023-05-10T13:23:08;2.97;;;2.25;;
12687;SDS011;6408;59.388;17.798;2023-05-10T13:25:37;2.63;;;2.05;;
12687;SDS011;6408;59.388;17.798;2023-05-10T13:28:05;4.20;;;1.92;;
12687;SDS011;6408;59.388;17.798;2023-05-10T13:30:32;3.92;;;2.20;;
12687;SDS011;6408;59.388;17.798;2023-05-10T13:32:59;4.72;;;2.10;;
12687;SDS011;6408;59.388;17.798;2023-05-10T13:35:26;4.88;;;1.90;;
12687;SDS011;6408;59.388;17.798;2023-05-10T13:37:54;2.10;;;1.88;;
12687;SDS011;6408;59.388;17.798;2023-05-10T13:40:22;3.92;;;1.65;;
12687;SDS011;6408;59.388;17.798;2023-05-10T13:42:51;2.92;;;2.17;;
12687;SDS011;6408;59.388;17.798;2023-05-10T13:45:19;3.97;;;1.95;;
12687;SDS011;6408;59.388;17.798;2023-05-10T13:47:46;3.22;;;1.95;;
12687;SDS011;6408;59.388;17.798;2023-05-10T13:50:14;3.45;;;2.10;;
12687;SDS011;6408;59.388;17.798;2023-05-10T13:52:41;4.05;;;1.88;;
12687;SDS011;6408;59.388;17.798;2023-05-10T13:55:09;3.88;;;2.10;;
12687;SDS011;6408;59.388;17.798;2023-05-10T13:57:37;3.17;;;1.98;;
12687;SDS011;6408;59.388;17.798;2023-05-10T14:00:08;4.22;;;2.13;;
12687;SDS011;6408;59.388;17.798;2023-05-10T14:02:36;3.80;;;2.13;;
12687;SDS011;6408;59.388;17.798;2023-05-10T14:05:04;2.00;;;1.80;;
12687;SDS011;6408;59.388;17.798;2023-05-10T14:07:32;4.45;;;2.05;;
12687;SDS011;6408;59.388;17.798;2023-05-10T14:09:59;2.70;;;1.83;;
12687;SDS011;6408;59.388;17.798;2023-05-10T14:12:27;2.00;;;1.75;;
12687;SDS011;6408;59.388;17.798;2023-05-10T14:14:54;1.83;;;1.73;;
12687;SDS011;6408;59.388;17.798;2023-05-10T14:17:25;4.85;;;2.08;;
12687;SDS011;6408;59.388;17.798;2023-05-10T14:19:52;4.35;;;2.13;;
12687;SDS011;6408;59.388;17.798;2023-05-10T14:22:20;2.90;;;1.90;;
12687;SDS011;6408;59.388;17.798;2023-05-10T14:24:47;3.58;;;2.00;;
12687;SDS011;6408;59.388;17.798;2023-05-10T14:27:15;3.20;;;2.00;;
12687;SDS011;6408;59.388;17.798;2023-05-10T14:29:43;3.35;;;2.13;;
12687;SDS011;6408;59.388;17.798;2023-05-10T14:32:10;2.08;;;1.88;;
12687;SDS011;6408;59.388;17.798;2023-05-10T14:34:39;3.03;;;2.00;;
12687;SDS011;6408;59.388;17.798;2023-05-10T14:37:09;6.00;;;2.10;;
12687;SDS011;6408;59.388;17.798;2023-05-10T14:39:36;1.80;;;1.70;;
12687;SDS011;6408;59.388;17.798;2023-05-10T14:42:04;3.85;;;2.17;;
12687;SDS011;6408;59.388;17.798;2023-05-10T14:44:32;2.72;;;2.10;;
12687;SDS011;6408;59.388;17.798;2023-05-10T14:46:59;1.85;;;1.75;;
12687;SDS011;6408;59.388;17.798;2023-05-10T14:49:27;3.45;;;2.15;;
12687;SDS011;6408;59.388;17.798;2023-05-10T14:51:57;1.80;;;1.70;;
12687;SDS011;6408;59.388;17.798;2023-05-10T14:54:24;2.40;;;1.63;;
12687;SDS011;6408;59.388;17.798;2023-05-10T14:56:52;3.67;;;1.92;;
12687;SDS011;6408;59.388;17.798;2023-05-10T14:59:20;3.00;;;1.88;;
12687;SDS011;6408;59.388;17.798;2023-05-10T15:01:47;2.70;;;1.85;;
12687;SDS011;6408;59.388;17.798;2023-05-10T15:04:14;2.25;;;1.98;;
12687;SDS011;6408;59.388;17.798;2023-05-10T15:06:42;2.47;;;2.00;;
12687;SDS011;6408;59.388;17.798;2023-05-10T15:09:11;2.45;;;2.22;;